createdAt,value
2022-08-08T00:09:16.151Z,99.90
2022-08-08T00:20:14.759Z,99.90
2022-08-08T00:22:50.776Z,99.90
2022-08-08T00:29:45.283Z,99.90
2022-08-08T00:52:48.907Z,99.90
2022-08-08T01:04:01.913Z,99.90
2022-08-08T01:11:36.395Z,99.90
2022-08-08T01:22:41.941Z,99.90
2022-08-08T01:25:54.135Z,99.90
2022-08-08T01:28:51.551Z,99.90
2022-08-08T01:32:12.968Z,99.90
2022-08-08T01:35:30.938Z,99.90
2022-08-08T01:38:38.191Z,99.90
2022-08-08T01:41:19.937Z,99.90
2022-08-08T01:43:55.853Z,99.90
2022-08-08T01:46:52.703Z,99.90
2022-08-08T01:49:38.498Z,99.90
2022-08-08T01:52:51.800Z,99.90
2022-08-08T01:56:28.453Z,99.90
2022-08-08T01:58:38.204Z,99.90
2022-08-08T02:01:21.046Z,99.90
2022-08-08T02:03:58.152Z,99.90
2022-08-08T02:06:53.925Z,99.90
2022-08-08T02:10:03.136Z,99.90
2022-08-08T02:12:35.339Z,99.90
2022-08-08T02:15:12.688Z,99.90
2022-08-08T02:17:51.709Z,99.90
2022-08-08T02:21:00.696Z,99.90
2022-08-08T02:23:31.610Z,99.90
2022-08-08T02:26:10.719Z,99.90
2022-08-08T02:28:55.064Z,99.90
2022-08-08T02:32:00.828Z,99.90
2022-08-08T02:35:07.636Z,99.90
2022-08-08T02:37:56.876Z,99.90
2022-08-08T02:40:41.991Z,99.90
2022-08-08T02:44:39.153Z,99.90
2022-08-08T02:47:00.796Z,99.90
2022-08-08T02:49:54.092Z,99.90
2022-08-08T02:53:00.577Z,99.90
2022-08-08T02:56:08.580Z,99.90
2022-08-08T02:59:37.637Z,99.90
2022-08-08T03:05:00.882Z,99.90
2022-08-08T03:06:57.118Z,99.90
2022-08-08T03:09:59.405Z,99.90
2022-08-08T03:13:07.357Z,99.90
2022-08-08T03:16:34.633Z,99.90
2022-08-08T03:19:50.925Z,99.90
2022-08-08T03:22:38.942Z,99.90
2022-08-08T03:25:18.245Z,99.90
2022-08-08T03:28:00.866Z,99.90
2022-08-08T03:30:36.867Z,99.90
2022-08-08T03:33:57.043Z,99.90
2022-08-08T03:36:19.505Z,99.90
2022-08-08T03:38:58.299Z,99.90
2022-08-08T03:42:27.262Z,99.90
2022-08-08T03:44:25.326Z,99.90
2022-08-08T03:46:55.973Z,99.90
2022-08-08T03:49:58.673Z,99.90
2022-08-08T03:52:18.646Z,99.90
2022-08-08T03:55:02.323Z,99.90
2022-08-08T03:58:09.471Z,99.90
2022-08-08T04:00:31.037Z,99.90
2022-08-08T04:03:04.034Z,99.90
2022-08-08T04:05:35.469Z,99.90
2022-08-08T04:08:07.476Z,99.90
2022-08-08T04:10:39.659Z,99.90
2022-08-08T04:13:17.896Z,99.90
2022-08-08T04:16:03.536Z,99.90
2022-08-08T04:18:44.657Z,99.90
2022-08-08T04:21:22.895Z,99.90
2022-08-08T04:24:05.233Z,99.90
2022-08-08T04:26:57.131Z,99.90
2022-08-08T04:29:36.722Z,99.90
2022-08-08T04:32:10.466Z,99.90
2022-08-08T04:34:49.559Z,99.90
2022-08-08T04:37:32.217Z,99.90
2022-08-08T04:40:07.918Z,99.90
2022-08-08T04:42:46.853Z,99.90
2022-08-08T04:45:29.424Z,99.90
2022-08-08T04:48:00.678Z,99.90
2022-08-08T04:50:38.594Z,99.90
2022-08-08T04:53:13.978Z,99.90
2022-08-08T04:55:59.688Z,99.90
2022-08-08T04:58:29.482Z,99.90
2022-08-08T05:01:00.398Z,99.90
2022-08-08T05:04:07.828Z,99.90
2022-08-08T05:06:29.371Z,99.90
2022-08-08T05:09:02.804Z,99.90
2022-08-08T05:11:39.003Z,99.90
2022-08-08T05:14:12.258Z,99.90
2022-08-08T05:16:51.535Z,99.90
2022-08-08T05:20:11.494Z,99.90
2022-08-08T05:22:17.569Z,99.90
2022-08-08T05:24:48.951Z,99.90
2022-08-08T05:27:19.237Z,99.90
2022-08-08T05:29:50.216Z,99.90
2022-08-08T05:32:24.674Z,99.90
2022-08-08T05:35:04.946Z,99.90
2022-08-08T05:37:52.332Z,99.90
2022-08-08T05:40:28.192Z,99.90
2022-08-08T05:43:38.555Z,99.90
2022-08-08T05:46:03.377Z,99.90
2022-08-08T05:48:37.733Z,99.90
2022-08-08T05:51:14.709Z,99.90
2022-08-08T05:53:56.228Z,99.90
2022-08-08T05:56:42.478Z,99.90
2022-08-08T06:00:00.684Z,99.90
2022-08-08T06:02:35.282Z,99.90
2022-08-08T06:05:33.647Z,99.90
2022-08-08T06:08:02.787Z,99.90
2022-08-08T06:10:38.432Z,99.90
2022-08-08T06:13:09.882Z,99.90
2022-08-08T06:15:51.073Z,99.90
2022-08-08T06:18:25.628Z,99.90
2022-08-08T06:20:58.021Z,99.90
2022-08-08T06:23:49.080Z,99.90
2022-08-08T06:26:43.767Z,99.90
2022-08-08T06:29:26.274Z,99.90
2022-08-08T06:32:10.445Z,99.90
2022-08-08T06:34:43.506Z,99.90
2022-08-08T06:37:37.468Z,99.90
2022-08-08T06:40:14.323Z,99.90
2022-08-08T06:42:53.682Z,99.90
2022-08-08T06:45:24.609Z,99.90
2022-08-08T06:48:01.114Z,99.90
2022-08-08T06:50:38.190Z,99.90
2022-08-08T06:53:20.198Z,99.90
2022-08-08T06:56:02.139Z,99.90
2022-08-08T06:58:33.245Z,99.90
2022-08-08T07:01:11.357Z,99.90
2022-08-08T07:04:40.056Z,99.90
2022-08-08T07:06:51.981Z,99.90
2022-08-08T07:09:45.734Z,99.90
2022-08-08T07:12:30.559Z,99.90
2022-08-08T07:15:06.596Z,99.90
2022-08-08T07:18:00.856Z,99.90
2022-08-08T07:20:40.582Z,99.90
2022-08-08T07:23:25.597Z,99.90
2022-08-08T07:26:01.353Z,99.90
2022-08-08T07:28:32.742Z,99.90
2022-08-08T07:31:06.497Z,99.90
2022-08-08T07:33:53.804Z,99.90
2022-08-08T07:36:30.382Z,99.90
2022-08-08T07:39:02.437Z,99.90
2022-08-08T07:42:04.543Z,99.90
2022-08-08T07:44:37.567Z,99.90
2022-08-08T07:47:10.734Z,99.90
2022-08-08T07:49:41.303Z,99.90
2022-08-08T07:52:23.067Z,99.90
2022-08-08T07:55:04.810Z,99.90
2022-08-08T07:57:48.529Z,99.90
2022-08-08T08:00:20.007Z,99.90
2022-08-08T08:03:03.529Z,99.90
2022-08-08T08:05:38.685Z,99.90
2022-08-08T08:08:18.853Z,99.90
2022-08-08T08:10:53.581Z,99.90
2022-08-08T08:13:42.231Z,99.90
2022-08-08T08:16:25.968Z,99.90
2022-08-08T08:18:57.949Z,99.90
2022-08-08T08:21:44.312Z,99.90
2022-08-08T08:24:21.049Z,99.90
2022-08-08T08:27:03.497Z,99.90
2022-08-08T08:29:35.552Z,99.90
2022-08-08T08:32:06.214Z,99.90
2022-08-08T08:34:43.143Z,99.90
2022-08-08T08:37:15.481Z,99.90
2022-08-08T08:40:00.830Z,99.90
2022-08-08T08:42:36.115Z,99.90
2022-08-08T08:45:20.984Z,99.90
2022-08-08T08:47:54.734Z,99.90
2022-08-08T08:50:31.824Z,99.90
2022-08-08T08:53:54.482Z,99.90
2022-08-08T08:56:02.073Z,99.90
2022-08-08T08:58:37.741Z,99.90
2022-08-08T09:01:13.567Z,99.90
2022-08-08T09:03:50.987Z,99.90
2022-08-08T09:06:28.619Z,99.90
2022-08-08T09:09:18.828Z,99.90
2022-08-08T09:12:02.070Z,99.90
2022-08-08T09:14:42.507Z,99.90
2022-08-08T09:17:18.894Z,99.90
2022-08-08T09:22:01.640Z,99.90
2022-08-08T09:22:40.136Z,99.90
2022-08-08T09:25:11.490Z,99.90
2022-08-08T09:27:57.229Z,99.90
2022-08-08T09:30:31.821Z,99.90
2022-08-08T09:33:54.456Z,99.90
2022-08-08T09:35:59.061Z,99.90
2022-08-08T09:38:53.244Z,99.90
2022-08-08T09:42:14.008Z,99.90
2022-08-08T09:44:42.821Z,99.90
2022-08-08T09:48:02.443Z,99.90
2022-08-08T09:50:13.595Z,99.90
2022-08-08T09:52:55.588Z,99.90
2022-08-08T09:55:51.892Z,99.90
2022-08-08T09:58:25.634Z,99.90
2022-08-08T10:00:58.967Z,99.90
2022-08-08T10:03:35.654Z,99.90
2022-08-08T10:06:21.444Z,99.90
2022-08-08T10:09:00.153Z,99.90
2022-08-08T10:12:28.082Z,99.90
2022-08-08T10:14:28.460Z,99.90
2022-08-08T10:17:57.458Z,99.90
2022-08-08T10:20:00.757Z,99.90
2022-08-08T10:22:33.687Z,99.90
2022-08-08T10:25:15.640Z,99.90
2022-08-08T10:27:46.812Z,99.90
2022-08-08T10:31:00.806Z,99.90
2022-08-08T10:33:12.311Z,99.90
2022-08-08T10:36:09.669Z,99.90
2022-08-08T10:38:37.629Z,99.90
2022-08-08T10:41:20.328Z,99.90
2022-08-08T10:43:53.238Z,99.30
2022-08-08T10:46:31.596Z,99.30
2022-08-08T10:49:01.493Z,99.00
2022-08-08T10:51:47.589Z,97.60
2022-08-08T10:54:26.901Z,97.80
2022-08-08T10:57:00.934Z,95.90
2022-08-08T10:59:40.085Z,97.80
2022-08-08T11:02:12.141Z,99.30
2022-08-08T11:04:53.740Z,99.60
2022-08-08T11:08:30.188Z,99.80
2022-08-08T11:10:28.845Z,99.90
2022-08-08T11:13:28.201Z,99.90
2022-08-08T11:15:52.409Z,99.90
2022-08-08T11:18:35.153Z,99.90
2022-08-08T11:21:08.965Z,99.90
2022-08-08T11:23:43.358Z,99.90
2022-08-08T11:26:20.925Z,99.90
2022-08-08T11:29:02.970Z,99.90
2022-08-08T11:31:43.543Z,99.90
2022-08-08T11:34:22.919Z,99.90
2022-08-08T11:36:58.808Z,99.80
2022-08-08T11:39:37.014Z,99.90
2022-08-08T11:42:09.401Z,99.90
2022-08-08T11:44:41.298Z,99.90
2022-08-08T11:47:12.804Z,99.90
2022-08-08T11:49:50.848Z,99.90
2022-08-08T11:52:27.344Z,99.90
2022-08-08T11:54:58.029Z,99.90
2022-08-08T11:57:35.275Z,99.90
2022-08-08T12:00:09.669Z,99.90
2022-08-08T12:02:50.928Z,99.30
2022-08-08T12:05:33.666Z,99.50
2022-08-08T12:08:04.411Z,99.60
2022-08-08T12:10:36.435Z,99.90
2022-08-08T12:13:14.326Z,99.80
2022-08-08T12:15:49.357Z,99.60
2022-08-08T12:18:24.785Z,99.90
2022-08-08T12:20:58.784Z,99.90
2022-08-08T12:23:43.798Z,99.90
2022-08-08T12:26:27.748Z,99.90
2022-08-08T12:29:21.770Z,99.90
2022-08-08T12:32:13.520Z,99.90
2022-08-08T12:34:58.882Z,99.90
2022-08-08T12:37:40.128Z,99.90
2022-08-08T12:40:22.926Z,99.90
2022-08-08T12:42:55.910Z,99.90
2022-08-08T12:45:59.969Z,99.90
2022-08-08T12:48:38.176Z,99.90
2022-08-08T12:51:11.396Z,99.90
2022-08-08T12:53:58.964Z,99.90
2022-08-08T12:56:35.658Z,99.90
2022-08-08T12:59:16.847Z,99.90
2022-08-08T13:01:55.744Z,99.90
2022-08-08T13:04:28.274Z,99.90
2022-08-08T13:07:02.927Z,99.90
2022-08-08T13:10:00.666Z,99.90
2022-08-08T13:12:32.789Z,99.90
2022-08-08T13:15:05.337Z,99.90
2022-08-08T13:17:53.829Z,99.90
2022-08-08T13:20:27.693Z,99.90
2022-08-08T13:25:51.036Z,99.90
2022-08-08T13:28:33.096Z,99.90
2022-08-08T13:31:04.612Z,99.90
2022-08-08T13:33:42.538Z,99.90
2022-08-08T13:36:13.864Z,99.90
2022-08-08T13:38:43.402Z,99.90
2022-08-08T13:41:16.360Z,99.90
2022-08-08T13:43:50.005Z,99.90
2022-08-08T13:46:26.361Z,99.90
2022-08-08T13:50:32.079Z,99.90
2022-08-08T13:51:56.597Z,99.90
2022-08-08T13:54:29.376Z,99.90
2022-08-08T13:57:08.700Z,99.90
2022-08-08T13:59:48.206Z,99.90
2022-08-08T14:02:22.742Z,99.90
2022-08-08T14:05:04.902Z,99.90
2022-08-08T14:07:42.403Z,99.90
2022-08-08T14:10:17.221Z,99.90
2022-08-08T14:12:48.680Z,99.90
2022-08-08T14:15:31.686Z,99.90
2022-08-08T14:18:37.076Z,99.90
2022-08-08T14:21:07.946Z,99.90
2022-08-08T14:24:08.134Z,99.90
2022-08-08T14:26:33.587Z,99.90
2022-08-08T14:29:11.648Z,99.90
2022-08-08T14:32:08.883Z,99.90
2022-08-08T14:34:43.257Z,99.90
2022-08-08T14:37:19.034Z,99.90
2022-08-08T14:39:54.290Z,99.90
2022-08-08T14:42:55.461Z,99.90
2022-08-08T14:45:33.226Z,99.90
2022-08-08T14:48:27.248Z,99.90
2022-08-08T14:51:07.352Z,99.90
2022-08-08T14:53:55.084Z,99.90
2022-08-08T14:56:26.522Z,99.90
2022-08-08T14:58:57.038Z,99.90
2022-08-08T15:01:37.675Z,99.90
2022-08-08T15:04:13.288Z,99.90
2022-08-08T15:06:45.367Z,99.90
2022-08-08T15:09:16.846Z,99.90
2022-08-08T15:11:53.575Z,99.90
2022-08-08T15:14:25.229Z,99.90
2022-08-08T15:16:56.925Z,99.90
2022-08-08T15:19:28.848Z,99.90
2022-08-08T15:21:58.638Z,99.90
2022-08-08T15:24:31.808Z,99.90
2022-08-08T15:27:04.101Z,99.90
2022-08-08T15:29:50.258Z,99.90
2022-08-08T15:32:30.619Z,99.90
2022-08-08T15:35:04.992Z,99.90
2022-08-08T15:37:36.749Z,99.90
2022-08-08T15:40:11.355Z,99.90
2022-08-08T15:42:49.565Z,99.90
2022-08-08T15:45:23.092Z,99.90
2022-08-08T15:48:06.705Z,99.20
2022-08-08T15:51:07.115Z,99.10
2022-08-08T15:53:49.043Z,99.00
2022-08-08T15:56:22.106Z,98.50
2022-08-08T15:58:51.868Z,98.60
2022-08-08T16:01:22.501Z,98.50
2022-08-08T16:03:52.252Z,99.10
2022-08-08T16:06:28.621Z,99.90
2022-08-08T16:13:01.115Z,99.90
2022-08-08T16:13:09.180Z,99.90
2022-08-08T16:14:53.513Z,99.90
2022-08-08T16:17:38.729Z,99.90
2022-08-08T16:20:14.394Z,99.90
2022-08-08T16:22:49.253Z,99.90
2022-08-08T16:25:20.844Z,99.90
2022-08-08T16:27:57.158Z,99.90
2022-08-08T16:30:36.325Z,99.90
2022-08-08T16:33:06.261Z,99.90
2022-08-08T16:35:39.493Z,99.90
2022-08-08T16:38:16.254Z,99.90
2022-08-08T16:40:57.191Z,99.90
2022-08-08T16:43:48.869Z,99.90
2022-08-08T16:46:36.992Z,99.90
2022-08-08T16:49:09.116Z,99.90
2022-08-08T16:55:05.496Z,99.90
2022-08-08T16:55:13.927Z,99.90
2022-08-08T16:58:11.768Z,99.90
2022-08-08T17:00:14.167Z,99.90
2022-08-08T17:02:56.882Z,99.90
2022-08-08T17:05:42.358Z,99.90
2022-08-08T17:08:15.097Z,99.90
2022-08-08T17:10:53.509Z,99.90
2022-08-08T17:13:49.944Z,99.90
2022-08-08T17:16:22.107Z,99.90
2022-08-08T17:18:54.318Z,99.90
2022-08-08T17:21:26.260Z,99.90
2022-08-08T17:24:00.108Z,99.90
2022-08-08T17:26:31.996Z,99.90
2022-08-08T17:29:04.416Z,99.90
2022-08-08T17:31:44.352Z,99.90
2022-08-08T17:34:49.034Z,99.90
2022-08-08T17:37:11.276Z,99.90
2022-08-08T17:40:04.335Z,99.90
2022-08-08T17:42:33.132Z,99.90
2022-08-08T17:45:03.566Z,99.90
2022-08-08T17:47:40.069Z,99.90
2022-08-08T17:50:11.825Z,99.90
2022-08-08T17:52:43.371Z,99.90
2022-08-08T17:56:06.310Z,99.90
2022-08-08T17:58:06.951Z,99.90
2022-08-08T18:00:39.092Z,99.90
2022-08-08T18:03:13.656Z,99.90
2022-08-08T18:05:49.697Z,99.90
2022-08-08T18:08:37.990Z,99.90
2022-08-08T18:11:14.973Z,99.90
2022-08-08T18:13:47.513Z,99.90
2022-08-08T18:16:23.159Z,99.90
2022-08-08T18:18:56.612Z,99.90
2022-08-08T18:22:00.511Z,99.90
2022-08-08T18:24:19.381Z,99.90
2022-08-08T18:26:54.924Z,99.90
2022-08-08T18:29:33.406Z,99.90
2022-08-08T18:32:06.832Z,99.90
2022-08-08T18:34:42.610Z,99.90
2022-08-08T18:37:17.723Z,99.90
2022-08-08T18:40:02.968Z,99.90
2022-08-08T18:42:33.151Z,99.90
2022-08-08T18:45:09.154Z,99.90
2022-08-08T18:47:53.724Z,99.90
2022-08-08T18:50:27.079Z,99.90
2022-08-08T18:52:58.111Z,99.90
2022-08-08T18:55:27.990Z,99.90
2022-08-08T18:57:57.789Z,99.90
2022-08-08T19:00:29.265Z,99.90
2022-08-08T19:03:13.458Z,99.90
2022-08-08T19:05:48.612Z,99.90
2022-08-08T19:08:28.538Z,99.90
2022-08-08T19:11:01.752Z,99.90
2022-08-08T19:13:52.877Z,99.90
2022-08-08T19:16:28.524Z,99.90
2022-08-08T19:22:05.633Z,99.90
2022-08-08T19:24:49.122Z,99.90
2022-08-08T19:27:56.036Z,99.90
2022-08-08T19:33:19.223Z,99.90
2022-08-08T19:36:09.081Z,99.90
2022-08-08T19:38:40.707Z,99.90
2022-08-08T19:41:11.061Z,99.90
2022-08-08T19:44:02.325Z,99.90
2022-08-08T19:46:33.938Z,99.90
2022-08-08T19:49:03.530Z,99.90
2022-08-08T19:51:39.605Z,99.90
2022-08-08T19:54:14.315Z,99.90
2022-08-08T19:57:51.066Z,99.90
2022-08-08T20:00:30.056Z,99.90
2022-08-08T20:03:02.050Z,99.90
2022-08-08T20:06:16.340Z,99.90
2022-08-08T20:08:35.179Z,99.90
2022-08-08T20:11:06.193Z,99.90
2022-08-08T20:14:34.927Z,99.90
2022-08-08T20:16:30.069Z,99.90
2022-08-08T20:19:00.053Z,99.90
2022-08-08T20:21:37.959Z,99.90
2022-08-08T20:24:09.077Z,99.90
2022-08-08T20:26:49.192Z,99.90
2022-08-08T20:29:19.678Z,99.90
2022-08-08T20:32:10.088Z,99.90
2022-08-08T20:34:47.570Z,99.90
2022-08-08T20:37:17.451Z,99.90
2022-08-08T20:39:51.129Z,99.90
2022-08-08T20:42:29.352Z,99.90
2022-08-08T20:45:00.354Z,99.90
2022-08-08T20:47:36.139Z,99.90
2022-08-08T20:50:10.811Z,99.90
2022-08-08T20:52:41.166Z,99.90
2022-08-08T20:55:25.579Z,99.90
2022-08-08T20:57:58.137Z,99.90
2022-08-08T21:00:28.405Z,99.90
2022-08-08T21:02:57.900Z,99.90
2022-08-08T21:05:31.994Z,99.90
2022-08-08T21:08:35.944Z,99.90
2022-08-08T21:10:51.413Z,99.90
2022-08-08T21:13:23.436Z,99.90
2022-08-08T21:16:20.944Z,99.90
2022-08-08T21:18:58.788Z,99.90
2022-08-08T21:21:41.320Z,99.90
2022-08-08T21:24:26.913Z,99.90
2022-08-08T21:27:00.760Z,99.90
2022-08-08T21:30:05.456Z,99.90
2022-08-08T21:32:25.826Z,99.90
2022-08-08T21:34:56.948Z,99.90
2022-08-08T21:37:53.624Z,99.90
2022-08-08T21:40:30.960Z,99.90
2022-08-08T21:43:02.244Z,99.90
2022-08-08T21:48:00.138Z,99.90
2022-08-08T21:48:35.333Z,99.90
2022-08-08T21:51:13.166Z,99.90
2022-08-08T21:54:34.835Z,99.90
2022-08-08T21:56:42.223Z,99.90
2022-08-08T21:59:15.237Z,99.90
2022-08-08T22:01:52.257Z,99.90
2022-08-08T22:04:26.014Z,99.90
2022-08-08T22:06:55.733Z,99.90
2022-08-08T22:09:26.884Z,99.90
2022-08-08T22:12:09.755Z,99.90
2022-08-08T22:14:47.213Z,99.90
2022-08-08T22:17:21.753Z,99.90
2022-08-08T22:20:12.822Z,99.90
2022-08-08T22:22:41.737Z,99.90
2022-08-08T22:25:24.810Z,99.90
2022-08-08T22:28:04.035Z,99.90
2022-08-08T22:30:51.058Z,99.90
2022-08-08T22:34:12.855Z,99.90
2022-08-08T22:36:13.982Z,99.90
2022-08-08T22:38:47.945Z,99.90
2022-08-08T22:41:21.448Z,99.90
2022-08-08T22:44:02.823Z,99.90
2022-08-08T22:46:38.779Z,99.90
2022-08-08T22:49:10.690Z,99.90
2022-08-08T22:51:42.778Z,99.90
2022-08-08T22:54:32.565Z,99.90
2022-08-08T22:57:08.725Z,99.90
2022-08-08T22:59:58.813Z,99.90
2022-08-08T23:02:30.139Z,99.90
2022-08-08T23:05:05.277Z,99.90
2022-08-08T23:07:50.981Z,99.90
2022-08-08T23:10:25.587Z,99.90
2022-08-08T23:12:57.339Z,99.90
2022-08-08T23:16:38.762Z,99.90
2022-08-08T23:18:18.370Z,99.90
2022-08-08T23:20:54.874Z,99.90
2022-08-08T23:23:25.000Z,99.90
2022-08-08T23:25:54.266Z,99.90
2022-08-08T23:28:26.415Z,99.90
2022-08-08T23:30:55.726Z,99.90
2022-08-08T23:34:16.726Z,99.90
2022-08-08T23:36:20.754Z,99.90
2022-08-08T23:38:55.824Z,99.90
2022-08-08T23:41:29.108Z,99.90
2022-08-08T23:43:58.634Z,99.90
2022-08-08T23:49:05.063Z,99.90
2022-08-08T23:49:23.809Z,99.90
2022-08-08T23:52:04.846Z,99.90
2022-08-08T23:54:41.207Z,99.90
2022-08-08T23:57:27.006Z,99.90
